Terminal Aerodrome Forecast
Issued by NWS Albany, NY

Home | Current Version | Previous Version | Text Only | Print | Product List | Glossary On
Versions: 1 2 3 4 5 6 7 8 9 10 11 12 13 14 15 16 17 18
000
FTUS41 KALY 010457 AAB
TAFGFL
TAF AMD
KGFL 010457Z 0105/0124 01009KT 5SM -RA BR FEW025 BKN035 OVC045
     FM011000 04005KT 3SM -DZ BR SCT009 OVC025
     FM011800 06005KT 4SM BR VCSH OVC020=

USA.gov is the U.S. government's official web portal to all federal, state and local government web resources and services.